Time;durP1;ratioP1;P1;durP2;ratioP2;P2;SDS_P1;SDS_P2;PMS_P1;PMS_P2;Temp;Humidity;BMP_temperature;BMP_pressure;BME280_temperature;BME280_humidity;BME280_pressure;Samples;Min_cycle;Max_cycle;Signal;HPM_P1;HPM_P2
2022/01/08 00:02:48;;;;;;;;;40.50;33.50;;;;;11.82;69.11;100867.22;146602;576;46008;-72
2022/01/08 00:05:41;;;;;;;;;50.00;41.50;;;;;11.83;69.17;100869.00;146597;566;46017;-72
2022/01/08 00:08:34;;;;;;;;;51.50;41.25;;;;;11.85;69.41;100872.59;146604;564;46020;-72
2022/01/08 00:11:27;;;;;;;;;48.75;39.50;;;;;11.85;69.72;100864.81;146597;615;47012;-73
2022/01/08 00:14:22;;;;;;;;;46.75;38.25;;;;;11.82;70.34;100857.72;146602;570;46020;-73
2022/01/08 00:17:14;;;;;;;;;48.75;39.50;;;;;11.79;69.57;100863.66;146598;622;46010;-73
2022/01/08 00:20:09;;;;;;;;;44.50;37.25;;;;;11.76;69.54;100860.03;146601;761;46021;-81
2022/01/08 00:23:01;;;;;;;;;48.75;38.00;;;;;11.78;69.35;100876.59;146598;621;46016;-79
2022/01/08 00:25:53;;;;;;;;;48.25;39.25;;;;;11.79;69.79;100867.97;146600;564;47009;-82
2022/01/08 00:28:45;;;;;;;;;48.25;38.75;;;;;11.80;69.47;100867.13;146597;613;46916;-86
2022/01/08 00:31:38;;;;;;;;;58.25;44.75;;;;;11.81;69.33;100863.75;146601;701;46020;-84
2022/01/08 00:34:30;;;;;;;;;51.75;41.25;;;;;11.83;69.42;100856.00;146600;588;46017;-80
2022/01/08 00:37:22;;;;;;;;;44.75;35.75;;;;;11.83;69.19;100856.00;146604;678;46008;-83
2022/01/08 00:40:15;;;;;;;;;48.75;40.25;;;;;11.79;69.15;100857.56;146598;588;46011;-78
2022/01/08 00:43:07;;;;;;;;;55.00;43.75;;;;;11.76;69.44;100852.22;146604;588;46020;-79
2022/01/08 00:46:00;;;;;;;;;54.75;43.00;;;;;11.73;69.52;100852.06;146601;569;46010;-80
2022/01/08 00:48:52;;;;;;;;;53.75;43.00;;;;;11.69;69.33;100850.16;146602;601;46020;-79
2022/01/08 00:51:44;;;;;;;;;51.00;42.00;;;;;11.64;69.33;100856.81;146596;627;47010;-80
2022/01/08 00:54:38;;;;;;;;;50.50;41.00;;;;;11.62;69.65;100845.47;146604;590;46020;-76
2022/01/08 00:57:30;;;;;;;;;49.00;38.75;;;;;11.59;70.00;100848.81;146596;590;47010;-76
2022/01/08 01:00:22;;;;;;;;;51.00;41.25;;;;;11.53;71.75;100856.31;146599;640;46020;-75
2022/01/08 01:03:15;;;;;;;;;50.75;41.50;;;;;11.42;70.61;100839.28;146600;654;46016;-76
2022/01/08 01:06:07;;;;;;;;;51.00;41.00;;;;;11.38;70.42;100846.03;146602;575;46020;-75
2022/01/08 01:08:59;;;;;;;;;47.00;38.00;;;;;11.34;72.39;100836.34;146598;658;46016;-79
2022/01/08 01:11:55;;;;;;;;;46.25;38.00;;;;;11.26;71.86;100841.13;146600;624;46021;-81
2022/01/08 01:14:47;;;;;;;;;53.50;42.50;;;;;11.22;71.57;100846.09;146595;639;46016;-80
2022/01/08 01:17:39;;;;;;;;;46.50;37.75;;;;;11.15;71.47;100834.50;146601;626;46021;-81
2022/01/08 01:20:32;;;;;;;;;55.75;42.00;;;;;11.13;71.15;100830.94;146597;597;47010;-81
2022/01/08 01:23:32;;;;;;;;;51.50;44.00;;;;;11.13;71.58;100830.94;146601;609;47008;-84
2022/01/08 01:26:27;;;;;;;;;53.00;42.75;;;;;11.14;71.91;100827.53;146597;683;46027;-82
2022/01/08 01:48:26;;;;;;;;;52.25;41.75;;;;;11.12;70.83;100811.00;146602;575;46021;-79
2022/01/08 01:51:36;;;;;;;;;46.25;37.75;;;;;11.12;70.40;100810.09;146599;627;46010;-81
2022/01/08 01:54:29;;;;;;;;;49.00;39.75;;;;;11.09;71.43;100814.34;146604;678;46008;-77
2022/01/08 01:57:22;;;;;;;;;45.00;36.25;;;;;11.05;71.60;100804.59;146598;595;47010;-79
2022/01/08 02:00:14;;;;;;;;;45.00;34.00;;;;;11.00;71.57;100810.37;146602;712;46020;-76
2022/01/08 02:03:07;;;;;;;;;45.75;36.50;;;;;10.95;71.59;100809.25;146598;615;46016;-82
2022/01/08 02:05:59;;;;;;;;;42.00;36.00;;;;;10.96;71.71;100805.84;146601;704;46020;-84
2022/01/08 02:08:52;;;;;;;;;44.00;33.25;;;;;10.95;72.19;100801.47;146598;573;46010;-84
2022/01/08 02:12:17;;;;;;;;;37.25;32.00;;;;;10.95;70.56;100796.28;146600;589;46026;-85
2022/01/08 02:15:10;;;;;;;;;40.75;34.50;;;;;10.96;71.05;100783.38;146597;732;47010;-78
2022/01/08 02:18:02;;;;;;;;;42.00;34.00;;;;;11.00;71.12;100771.47;146602;588;46021;-78
2022/01/08 02:20:54;;;;;;;;;36.50;32.50;;;;;11.01;71.26;100762.87;146598;590;46019;-88
2022/01/08 02:23:48;;;;;;;;;39.50;34.00;;;;;11.00;71.05;100767.16;146602;700;46024;-87
2022/01/08 02:26:41;;;;;;;;;31.75;28.50;;;;;11.02;70.99;100762.94;146597;605;46016;-85
2022/01/08 02:32:18;;;;;;;;;43.50;36.50;;;;;9.29;70.83;100430.25;146606;748;46010;-89
2022/01/08 02:35:12;;;;;;;;;44.25;35.25;;;;;11.19;70.95;100737.81;146602;628;45020;-88
2022/01/08 02:38:04;;;;;;;;;48.00;37.50;;;;;11.24;71.16;100733.72;146598;589;46012;-89
2022/01/08 02:41:01;;;;;;;;;50.50;39.25;;;;;11.22;72.07;100726.72;146604;631;46008;-91
2022/01/08 02:43:53;;;;;;;;;42.00;32.75;;;;;11.19;71.16;100710.97;146600;626;46914;-88
2022/01/08 02:46:46;;;;;;;;;34.50;28.50;;;;;11.14;72.17;100715.06;146605;584;46009;-87
2022/01/08 02:49:39;;;;;;;;;31.75;30.25;;;;;11.07;71.83;100725.13;146600;622;46016;-85
2022/01/08 02:52:32;;;;;;;;;34.25;29.75;;;;;11.03;71.18;100728.41;146601;589;46020;-87
2022/01/08 02:55:25;;;;;;;;;35.50;32.50;;;;;11.03;71.26;100730.12;146596;589;47012;-83
2022/01/08 02:58:18;;;;;;;;;34.25;29.75;;;;;11.06;71.08;100725.97;146599;647;46008;-81
2022/01/08 03:01:10;;;;;;;;;35.75;31.00;;;;;11.14;70.80;100730.62;146604;572;46017;-83
2022/01/08 03:04:02;;;;;;;;;25.75;22.25;;;;;9.54;70.56;100457.41;146607;581;46008;-83
2022/01/08 03:06:54;;;;;;;;;26.50;23.25;;;;;11.17;70.85;100733.38;146607;632;46010;-81
2022/01/08 03:09:56;;;;;;;;;27.00;27.00;;;;;11.12;71.60;100730.56;146604;612;46021;-80
2022/01/08 03:12:50;;;;;;;;;44.50;33.75;;;;;10.43;71.53;100631.16;146604;600;46012;-81
2022/01/08 03:15:42;;;;;;;;;29.25;25.00;;;;;11.01;71.34;100730.03;146609;572;46008;-77
2022/01/08 03:18:36;;;;;;;;;26.50;24.75;;;;;11.00;70.84;100729.97;146604;566;46016;-82
2022/01/08 03:21:35;;;;;;;;;24.50;24.50;;;;;11.01;70.82;100732.63;146606;666;46008;-80
2022/01/08 03:24:29;;;;;;;;;27.75;25.00;;;;;11.03;70.51;100725.81;146605;575;46011;-81
2022/01/08 03:27:21;;;;;;;;;32.00;25.75;;;;;11.03;70.94;100731.00;146603;638;46020;-81
2022/01/08 03:30:15;;;;;;;;;28.00;27.75;;;;;11.02;71.26;100741.28;146602;579;46017;-82
2022/01/08 03:33:08;;;;;;;;;27.00;25.00;;;;;10.97;70.73;100748.84;146607;598;46008;-81
2022/01/08 03:36:00;;;;;;;;;36.50;28.00;;;;;10.94;71.53;100740.91;146603;618;46016;-81
2022/01/08 03:38:54;;;;;;;;;28.25;25.25;;;;;10.91;71.37;100740.75;146606;599;46008;-84
2022/01/08 03:41:46;;;;;;;;;30.25;27.75;;;;;10.89;72.73;100744.09;146605;584;46016;-76
2022/01/08 03:44:39;;;;;;;;;30.75;26.25;;;;;10.85;72.63;100746.53;146608;581;46020;-71
2022/01/08 03:47:53;;;;;;;;;52.00;42.50;;;;;10.84;71.70;100744.75;146605;596;46914;-78
2022/01/08 03:50:43;;;;;;;;;41.25;36.25;;;;;10.87;72.13;100751.78;146603;577;47008;-85
2022/01/08 03:53:35;;;;;;;;;32.50;28.50;;;;;10.88;72.88;100748.38;146602;595;46017;-78
2022/01/08 03:56:30;;;;;;;;;32.75;27.00;;;;;10.88;72.24;100745.78;146606;709;46008;-88
2022/01/08 03:59:22;;;;;;;;;28.25;25.50;;;;;10.86;72.27;100750.00;146602;625;46016;-89
2022/01/08 04:02:15;;;;;;;;;34.50;28.00;;;;;10.86;72.82;100744.81;146600;612;47008;-77
2022/01/08 04:05:07;;;;;;;;;29.75;28.00;;;;;10.83;73.17;100745.53;146601;650;46016;-77
2022/01/08 04:08:00;;;;;;;;;35.25;27.50;;;;;10.83;72.69;100749.84;146600;575;47009;-86
2022/01/08 04:10:52;;;;;;;;;29.50;27.00;;;;;10.80;72.43;100748.00;146598;635;46914;-74
2022/01/08 04:13:44;;;;;;;;;40.50;33.00;;;;;10.83;72.51;100744.66;146603;599;46008;-75
2022/01/08 04:16:40;;;;;;;;;52.00;42.50;;;;;10.85;72.04;100738.75;146599;706;46017;-74
2022/01/08 04:19:33;;;;;;;;;49.75;42.00;;;;;10.92;71.74;100739.06;146601;597;46020;-74
2022/01/08 04:22:26;;;;;;;;;45.00;36.00;;;;;10.96;71.84;100730.59;146598;570;46016;-77
2022/01/08 04:25:19;;;;;;;;;37.50;33.50;;;;;10.99;71.67;100722.97;146602;586;46008;-78
2022/01/08 04:28:11;;;;;;;;;45.50;37.00;;;;;11.01;71.33;100722.22;146600;602;46016;-80
2022/01/08 04:31:03;;;;;;;;;48.25;39.00;;;;;11.01;71.75;100724.84;146600;600;47010;-78
2022/01/08 04:33:56;;;;;;;;;38.50;34.25;;;;;11.00;71.65;100724.78;146600;616;46016;-78
2022/01/08 04:36:49;;;;;;;;;41.25;37.00;;;;;10.99;72.10;100738.53;146600;572;47008;-75
2022/01/08 04:39:41;;;;;;;;;61.25;49.00;;;;;10.94;71.75;100738.31;146598;608;47010;-75
2022/01/08 04:42:33;;;;;;;;;46.75;38.75;;;;;10.92;72.11;100739.94;146600;569;47008;-73
2022/01/08 04:45:29;;;;;;;;;31.25;28.75;;;;;10.87;72.16;100738.81;146599;570;46017;-74
2022/01/08 04:48:22;;;;;;;;;32.25;29.50;;;;;10.83;71.91;100737.75;146600;613;47008;-73
2022/01/08 04:51:14;;;;;;;;;37.25;31.25;;;;;10.81;72.41;100735.91;146599;641;46029;-74
2022/01/08 04:54:07;;;;;;;;;38.75;32.00;;;;;10.80;72.39;100736.72;146599;582;46008;-74
2022/01/08 04:56:59;;;;;;;;;41.50;33.75;;;;;10.79;73.00;100734.97;146598;569;46016;-73
2022/01/08 04:59:51;;;;;;;;;36.50;32.00;;;;;10.74;72.65;100739.00;146602;584;46008;-73
2022/01/08 05:02:43;;;;;;;;;38.50;33.25;;;;;10.74;72.94;100736.41;146600;605;46016;-73
2022/01/08 05:05:35;;;;;;;;;43.50;35.75;;;;;10.74;72.49;100731.22;146600;588;47008;-75
2022/01/08 05:08:27;;;;;;;;;50.00;39.00;;;;;10.76;72.29;100727.03;146599;565;46016;-74
2022/01/08 05:11:20;;;;;;;;;45.75;36.25;;;;;10.79;71.98;100730.66;146603;605;46020;-74
2022/01/08 05:14:12;;;;;;;;;48.75;39.25;;;;;10.82;71.98;100728.22;146597;585;47020;-74
2022/01/08 05:17:04;;;;;;;;;71.25;54.25;;;;;10.88;72.04;100734.53;146603;617;46021;-74
2022/01/08 05:19:59;;;;;;;;;46.25;37.75;;;;;10.90;71.81;100731.19;146599;571;46016;-75
2022/01/08 05:22:53;;;;;;;;;37.25;34.25;;;;;10.93;71.81;100728.75;146598;635;47008;-82
2022/01/08 05:25:45;;;;;;;;;43.25;33.75;;;;;10.95;71.89;100726.22;146599;593;46016;-75
2022/01/08 05:28:38;;;;;;;;;35.25;31.75;;;;;10.93;72.00;100710.56;146603;607;46021;-79
2022/01/08 05:31:30;;;;;;;;;36.25;32.75;;;;;10.91;71.99;100714.81;146600;593;46016;-80
2022/01/08 05:34:22;;;;;;;;;39.25;33.00;;;;;10.89;71.74;100716.44;146603;616;46008;-91
2022/01/08 05:37:15;;;;;;;;;38.50;32.50;;;;;10.89;71.82;100719.03;146598;641;46017;-83
2022/01/08 05:40:08;;;;;;;;;42.00;34.50;;;;;10.90;71.84;100715.59;146601;565;47008;-80
2022/01/08 05:43:00;;;;;;;;;47.75;36.00;;;;;10.92;71.80;100719.19;146601;575;46010;-85
2022/01/08 05:45:53;;;;;;;;;53.25;43.50;;;;;10.90;72.38;100720.81;146603;570;46008;-85
2022/01/08 05:48:45;;;;;;;;;44.25;34.50;;;;;10.81;73.05;100718.66;146598;565;46016;-88
2022/01/08 05:51:37;;;;;;;;;46.50;35.75;;;;;10.74;72.71;100715.66;146599;575;47008;-88
2022/01/08 05:54:29;;;;;;;;;39.25;35.00;;;;;10.67;72.92;100723.97;146599;575;46010;-87
2022/01/08 05:57:21;;;;;;;;;45.00;35.50;;;;;10.60;72.92;100728.84;146601;576;46020;-77
2022/01/08 06:00:14;;;;;;;;;42.00;35.25;;;;;10.57;73.40;100732.97;146603;569;46017;-71
2022/01/08 06:03:06;;;;;;;;;44.50;34.25;;;;;10.51;74.09;100730.94;146607;569;46020;-70
2022/01/08 06:05:59;;;;;;;;;39.25;32.00;;;;;10.46;73.51;100729.81;146600;637;46017;-71
2022/01/08 06:08:51;;;;;;;;;36.25;32.75;;;;;10.45;73.25;100734.94;146605;672;46008;-70
2022/01/08 06:11:43;;;;;;;;;178.25;162.00;;;;;10.46;72.80;100737.59;146609;648;46010;-70
2022/01/08 06:14:35;;;;;;;;;50.50;42.50;;;;;10.48;73.21;100735.09;146612;662;46008;-70
2022/01/08 06:17:27;;;;;;;;;37.25;32.25;;;;;10.47;74.02;100736.81;146603;591;46016;-72
2022/01/08 06:20:19;;;;;;;;;36.75;32.25;;;;;10.48;73.23;100745.47;146601;605;47912;-70
2022/01/08 06:23:12;;;;;;;;;39.50;31.75;;;;;10.50;73.22;100741.22;146605;597;46016;-80
2022/01/08 06:26:06;;;;;;;;;45.75;38.50;;;;;10.52;72.77;100734.44;146607;611;46020;-75
2022/01/08 06:28:58;;;;;;;;;60.25;47.75;;;;;10.55;73.95;100738.06;146604;569;45914;-76
2022/01/08 06:31:51;;;;;;;;;55.75;41.50;;;;;10.56;75.52;100738.94;146609;609;46008;-74
2022/01/08 06:34:43;;;;;;;;;41.75;34.75;;;;;10.56;73.69;100733.78;146605;572;46914;-73
2022/01/08 06:37:35;;;;;;;;;38.50;32.50;;;;;10.58;73.85;100735.63;146608;592;46010;-72
2022/01/08 06:40:27;;;;;;;;;35.75;31.50;;;;;10.63;74.05;100733.28;146606;698;46016;-72
2022/01/08 06:43:20;;;;;;;;;37.25;32.25;;;;;10.68;73.69;100733.50;146606;565;46008;-72
2022/01/08 06:46:12;;;;;;;;;33.50;30.25;;;;;10.72;73.10;100732.88;146605;704;46010;-73
2022/01/08 06:49:05;;;;;;;;;39.75;33.25;;;;;10.75;74.14;100727.84;146605;564;46010;-76
2022/01/08 06:51:57;;;;;;;;;31.50;27.75;;;;;10.79;73.73;100727.19;146601;669;46017;-74
2022/01/08 06:54:49;;;;;;;;;34.00;29.75;;;;;10.84;73.75;100729.19;146608;631;46008;-73
2022/01/08 06:57:43;;;;;;;;;64.75;50.50;;;;;10.90;73.54;100731.19;146602;599;47010;-74
2022/01/08 07:00:35;;;;;;;;;56.25;46.00;;;;;10.96;73.51;100718.50;146602;567;46008;-71
2022/01/08 07:03:27;;;;;;;;;29.25;26.50;;;;;11.02;73.56;100715.34;146596;565;47012;-74
2022/01/08 07:06:20;;;;;;;;;35.00;26.50;;;;;11.05;73.95;100720.69;146603;584;46021;-75
2022/01/08 07:09:12;;;;;;;;;46.25;36.50;;;;;11.09;74.03;100715.72;146601;632;46010;-79
2022/01/08 07:12:04;;;;;;;;;59.50;46.50;;;;;11.14;73.39;100733.22;146604;677;46011;-79
2022/01/08 07:14:56;;;;;;;;;54.50;42.75;;;;;11.17;72.32;100713.50;146600;569;46017;-78
2022/01/08 07:17:49;;;;;;;;;48.75;39.00;;;;;11.25;72.31;100727.75;146599;565;47008;-87
2022/01/08 07:20:41;;;;;;;;;50.25;39.75;;;;;11.36;72.33;100723.06;146596;585;46017;-80
2022/01/08 07:23:33;;;;;;;;;58.50;46.50;;;;;11.44;72.02;100715.66;146603;618;47008;-76
2022/01/08 07:26:25;;;;;;;;;58.00;46.00;;;;;11.48;71.74;100708.06;146599;580;46010;-77
2022/01/08 07:29:18;;;;;;;;;55.25;44.00;;;;;11.55;71.88;100714.44;146605;565;46010;-87
2022/01/08 07:32:11;;;;;;;;;58.00;46.50;;;;;11.60;71.90;100714.66;146601;598;45914;-85
2022/01/08 07:35:03;;;;;;;;;52.75;42.75;;;;;11.66;71.70;100717.53;146602;686;46020;-79
2022/01/08 07:37:56;;;;;;;;;71.50;57.50;;;;;11.72;72.10;100710.03;146599;663;46016;-78
2022/01/08 07:40:51;;;;;;;;;71.75;55.00;;;;;11.77;72.12;100718.91;146603;742;47008;-79
2022/01/08 07:43:43;;;;;;;;;60.75;48.50;;;;;11.84;71.75;100718.41;146597;609;46010;-80
2022/01/08 07:46:35;;;;;;;;;59.00;46.75;;;;;11.89;71.83;100729.91;146601;575;46020;-80
2022/01/08 07:49:27;;;;;;;;;50.00;40.00;;;;;11.96;72.05;100718.06;146598;686;47010;-80
2022/01/08 07:52:20;;;;;;;;;64.00;49.75;;;;;12.00;72.66;100715.69;146604;626;46020;-82
2022/01/08 07:55:12;;;;;;;;;82.33;71.33;;;;;12.01;73.30;100716.59;146597;639;47008;-77
2022/01/08 07:58:04;;;;;;;;;80.25;69.00;;;;;11.97;72.87;100699.09;146600;689;46009;-87
2022/01/08 08:00:57;;;;;;;;;87.67;77.00;;;;;11.99;72.02;100703.53;146602;701;46016;-87
2022/01/08 08:03:49;;;;;;;;;109.00;94.00;;;;;11.99;72.43;100695.75;146607;602;46020;-85
2022/01/08 08:06:48;;;;;;;;;106.67;83.67;;;;;12.08;72.48;100694.34;146604;566;47914;-84
2022/01/08 08:09:40;;;;;;;;;77.67;70.00;;;;;12.16;73.34;100698.19;146611;620;46008;-75
2022/01/08 08:12:33;;;;;;;;;86.00;78.33;;;;;12.27;73.34;100691.75;146605;611;46012;-77
2022/01/08 08:15:25;;;;;;;;;89.33;77.00;;;;;12.41;73.17;100695.84;146609;628;46020;-78
2022/01/08 08:18:18;;;;;;;;;93.00;83.33;;;;;12.51;73.38;100702.31;146602;626;46016;-81
2022/01/08 08:21:11;;;;;;;;;106.67;91.33;;;;;12.55;73.01;100699.03;146616;599;46008;-75
2022/01/08 08:24:04;;;;;;;;;99.33;86.00;;;;;12.56;73.31;100699.94;146609;632;46016;-82
2022/01/08 08:26:56;;;;;;;;;90.33;80.33;;;;;12.53;72.93;100703.28;146612;572;46020;-79
2022/01/08 08:29:48;;;;;;;;;76.75;60.75;;;;;12.50;72.91;100702.28;146610;574;46016;-82
2022/01/08 08:32:42;;;;;;;;;74.75;61.50;;;;;12.46;72.84;100704.75;146607;589;46020;-81
2022/01/08 08:35:33;;;;;;;;;74.75;61.25;;;;;12.47;72.62;100698.72;146603;576;46010;-81
2022/01/08 08:38:26;;;;;;;;;71.75;58.00;;;;;12.54;72.64;100709.38;146608;611;46020;-78
2022/01/08 08:41:18;;;;;;;;;61.75;50.25;;;;;12.61;73.12;100703.59;146600;590;46016;-83
2022/01/08 08:44:11;;;;;;;;;60.25;47.25;;;;;12.69;72.78;100692.72;146604;569;46010;-82
2022/01/08 08:47:04;;;;;;;;;57.50;45.00;;;;;12.78;73.16;100697.41;146602;580;46016;-75
2022/01/08 08:49:56;;;;;;;;;55.25;45.00;;;;;12.84;72.48;100688.97;146606;597;46021;-73
2022/01/08 08:52:48;;;;;;;;;50.00;40.00;;;;;12.87;73.03;100679.59;146602;613;46016;-78
2022/01/08 08:55:41;;;;;;;;;53.00;40.75;;;;;11.93;73.30;100507.47;146606;573;46008;-76
2022/01/08 08:58:32;;;;;;;;;60.50;47.75;;;;;12.93;72.72;100669.41;146600;675;46017;-78
2022/01/08 09:01:28;;;;;;;;;64.75;49.50;;;;;13.01;72.79;100668.84;146603;669;46008;-84
2022/01/08 09:04:20;;;;;;;;;53.50;43.00;;;;;13.10;72.72;100662.28;146598;624;46016;-76
2022/01/08 09:07:13;;;;;;;;;47.50;39.75;;;;;13.23;72.80;100658.44;146602;656;46008;-73
2022/01/08 09:10:10;;;;;;;;;54.25;41.75;;;;;13.37;72.35;100649.50;146601;593;46016;-73
2022/01/08 09:13:02;;;;;;;;;60.75;46.75;;;;;13.49;72.50;100645.56;146602;599;45021;-73
2022/01/08 09:15:54;;;;;;;;;47.75;37.50;;;;;13.58;72.25;100638.09;146599;611;46016;-73
2022/01/08 09:18:48;;;;;;;;;65.50;50.50;;;;;13.63;72.12;100624.44;146602;592;47008;-74
2022/01/08 09:21:40;;;;;;;;;72.75;59.50;;;;;13.71;72.31;100609.09;146597;569;47010;-71
2022/01/08 09:24:33;;;;;;;;;74.75;64.50;;;;;13.83;72.03;100606.03;146604;690;46020;-73
2022/01/08 09:27:25;;;;;;;;;69.75;53.75;;;;;13.99;71.23;100610.97;146598;580;46017;-73
2022/01/08 09:30:17;;;;;;;;;63.25;49.75;;;;;14.13;70.67;100611.44;146604;565;46008;-72
2022/01/08 09:33:10;;;;;;;;;59.75;47.50;;;;;14.21;69.64;100604.78;146600;621;47010;-72
2022/01/08 09:36:03;;;;;;;;;63.00;48.75;;;;;14.28;69.20;100598.94;146599;673;47008;-73
2022/01/08 09:38:55;;;;;;;;;62.50;49.50;;;;;14.32;68.83;100595.59;146600;725;46016;-72
2022/01/08 09:41:48;;;;;;;;;62.00;47.50;;;;;14.38;68.88;100584.47;146602;566;46020;-73
2022/01/08 09:44:44;;;;;;;;;68.25;56.00;;;;;14.43;68.70;100574.22;146598;566;46033;-72
2022/01/08 09:47:37;;;;;;;;;62.75;50.75;;;;;14.49;68.39;100572.69;146600;647;47008;-72
2022/01/08 09:50:29;;;;;;;;;67.50;51.00;;;;;14.57;67.40;100569.47;146598;664;47010;-71
2022/01/08 09:53:21;;;;;;;;;68.50;52.00;;;;;14.61;67.69;100560.91;146602;575;46020;-71
2022/01/08 09:56:15;;;;;;;;;59.25;45.50;;;;;14.61;67.95;100567.03;146597;597;47011;-72
2022/01/08 09:59:07;;;;;;;;;60.00;46.00;;;;;14.60;67.39;100561.75;146605;605;45020;-71
2022/01/08 10:02:04;;;;;;;;;57.50;43.75;;;;;14.58;67.55;100560.81;146599;581;46016;-72
2022/01/08 10:04:56;;;;;;;;;54.75;44.75;;;;;14.57;67.22;100556.44;146603;606;46026;-72
2022/01/08 10:08:03;;;;;;;;;62.50;46.25;;;;;14.54;67.01;100542.44;146600;622;46016;-70
2022/01/08 10:11:13;;;;;;;;;59.50;47.00;;;;;14.58;66.74;100548.66;146601;587;47009;-72
2022/01/08 10:14:15;;;;;;;;;64.50;49.25;;;;;14.59;66.91;100536.50;146598;606;46016;-70
2022/01/08 10:17:16;;;;;;;;;60.25;46.00;;;;;14.57;66.44;100539.03;146601;573;46020;-75
2022/01/08 10:20:08;;;;;;;;;62.50;49.75;;;;;14.57;66.49;100548.59;146600;577;46017;-75
2022/01/08 10:23:14;;;;;;;;;61.50;48.25;;;;;14.53;66.44;100547.62;146600;576;46020;-75
2022/01/08 10:26:16;;;;;;;;;61.50;48.50;;;;;14.53;66.55;100545.00;146596;574;46017;-71
2022/01/08 10:29:11;;;;;;;;;56.25;44.25;;;;;14.57;66.35;100543.38;146601;613;46020;-72
2022/01/08 10:32:03;;;;;;;;;53.50;41.50;;;;;14.62;66.37;100537.47;146596;563;46016;-71
2022/01/08 10:34:55;;;;;;;;;54.00;41.50;;;;;14.68;66.48;100527.25;146602;600;46020;-72
2022/01/08 10:37:57;;;;;;;;;52.50;41.50;;;;;14.83;66.64;100523.31;146598;599;46016;-72
2022/01/08 10:40:49;;;;;;;;;61.25;48.00;;;;;14.96;67.03;100521.13;146601;595;46020;-71
2022/01/08 10:43:41;;;;;;;;;67.25;51.50;;;;;15.11;67.02;100522.41;146597;578;47010;-73
2022/01/08 10:46:34;;;;;;;;;65.50;52.00;;;;;15.31;66.89;100530.84;146601;604;47008;-72
2022/01/08 10:50:00;;;;;;;;;62.75;50.50;;;;;15.57;65.43;100519.41;146599;579;46016;-72
2022/01/08 10:52:52;;;;;;;;;58.75;45.25;;;;;15.84;65.06;100521.91;146601;590;47008;-72
2022/01/08 10:55:45;;;;;;;;;41.00;36.50;;;;;16.13;64.56;100511.31;146596;586;46012;-72
2022/01/08 10:58:52;;;;;;;;;44.75;36.00;;;;;16.43;63.01;100510.31;146604;780;46010;-72
2022/01/08 11:01:50;;;;;;;;;40.00;33.25;;;;;16.67;62.17;100502.16;146597;582;47010;-72
2022/01/08 11:04:49;;;;;;;;;40.25;33.00;;;;;16.75;61.28;100496.25;146603;670;47010;-71
2022/01/08 11:07:44;;;;;;;;;40.75;33.00;;;;;16.79;61.10;100489.34;146601;608;45914;-73
2022/01/08 11:10:38;;;;;;;;;31.75;28.75;;;;;16.77;60.88;100486.72;146604;627;45021;-73
2022/01/08 11:13:29;;;;;;;;;36.50;32.25;;;;;16.71;60.75;100489.16;146597;694;47010;-70
2022/01/08 11:16:22;;;;;;;;;31.75;27.00;;;;;16.64;61.01;100479.41;146601;582;47008;-72
2022/01/08 11:19:14;;;;;;;;;33.00;29.50;;;;;16.53;61.40;100476.53;146599;583;46914;-72
2022/01/08 11:22:08;;;;;;;;;33.50;26.75;;;;;16.50;61.69;100472.97;146600;597;46020;-71
2022/01/08 11:25:09;;;;;;;;;27.25;25.00;;;;;16.49;61.72;100459.00;146596;602;47012;-73
2022/01/08 11:28:21;;;;;;;;;29.50;27.50;;;;;16.54;62.09;100459.09;146602;613;46020;-73
2022/01/08 11:31:17;;;;;;;;;31.00;28.25;;;;;16.55;61.93;100459.16;146600;592;46016;-74
2022/01/08 11:34:12;;;;;;;;;35.75;30.00;;;;;16.59;61.98;100467.94;146601;653;47008;-72
2022/01/08 11:37:05;;;;;;;;;31.75;28.75;;;;;16.57;61.81;100467.94;146599;670;46016;-73
2022/01/08 11:39:59;;;;;;;;;33.75;29.75;;;;;16.60;62.43;100457.53;146600;602;46020;-70
2022/01/08 11:42:52;;;;;;;;;28.75;26.25;;;;;16.72;61.71;100456.00;146599;611;46025;-71
2022/01/08 11:46:08;;;;;;;;;30.00;26.25;;;;;16.28;61.16;100353.84;146602;565;46020;-71
2022/01/08 11:49:00;;;;;;;;;29.50;25.50;;;;;16.82;61.73;100447.53;146599;645;46010;-71
2022/01/08 11:52:19;;;;;;;;;30.75;24.50;;;;;15.95;60.67;100271.19;146600;586;47008;-72
2022/01/08 11:55:11;;;;;;;;;24.75;24.00;;;;;17.21;61.82;100421.28;146599;569;46912;-72
2022/01/08 11:58:41;;;;;;;;;26.75;24.50;;;;;17.71;60.40;100410.84;146602;606;46023;-72
2022/01/08 12:01:33;;;;;;;;;26.25;23.00;;;;;18.16;59.36;100403.72;146605;594;46010;-71
2022/01/08 12:04:34;;;;;;;;;25.00;24.75;;;;;17.80;58.98;100258.03;146607;628;45021;-72
2022/01/08 12:07:48;;;;;;;;;23.50;21.75;;;;;18.91;56.82;100399.53;146606;602;46016;-72
2022/01/08 12:10:58;;;;;;;;;25.25;22.75;;;;;19.02;56.76;100381.25;146605;588;46008;-73
2022/01/08 12:13:52;;;;;;;;;22.75;19.00;;;;;19.20;55.09;100388.47;146601;571;46016;-72
2022/01/08 12:16:49;;;;;;;;;24.00;18.25;;;;;19.34;55.32;100382.47;146607;572;46020;-73
2022/01/08 12:19:47;;;;;;;;;19.75;18.75;;;;;19.14;54.64;100328.84;146602;571;46016;-72
2022/01/08 12:22:39;;;;;;;;;18.00;17.00;;;;;19.44;54.69;100378.22;146599;662;47010;-73
2022/01/08 12:25:44;;;;;;;;;16.50;16.50;;;;;19.51;55.08;100371.25;146603;593;46017;-73
2022/01/08 12:29:05;;;;;;;;;20.75;18.25;;;;;19.61;55.31;100392.38;146607;563;46020;-72
2022/01/08 12:32:30;;;;;;;;;25.75;22.75;;;;;18.90;55.58;100233.13;146606;567;46017;-72
2022/01/08 12:35:37;;;;;;;;;21.50;18.25;;;;;19.77;54.92;100355.72;146607;644;46020;-73
2022/01/08 12:38:35;;;;;;;;;12.75;11.75;;;;;19.76;53.82;100346.97;146605;605;46016;-74
2022/01/08 12:41:27;;;;;;;;;15.25;13.50;;;;;19.86;53.56;100352.28;146605;623;46020;-72
2022/01/08 12:44:30;;;;;;;;;15.50;13.00;;;;;19.84;53.79;100349.63;146604;604;46012;-72
2022/01/08 12:48:03;;;;;;;;;16.25;12.00;;;;;19.19;54.74;100236.87;146607;581;46009;-72
2022/01/08 12:51:05;;;;;;;;;12.25;11.50;;;;;19.92;53.64;100344.44;146604;632;46016;-72
2022/01/08 12:54:09;;;;;;;;;12.50;10.00;;;;;20.14;53.06;100327.91;146606;617;46020;-72
2022/01/08 12:57:05;;;;;;;;;16.25;14.50;;;;;20.30;52.37;100307.81;146605;579;46016;-72
2022/01/08 12:59:57;;;;;;;;;15.00;12.75;;;;;20.44;51.15;100323.69;146603;581;46008;-71
2022/01/08 13:02:50;;;;;;;;;11.50;9.50;;;;;20.32;52.22;100313.09;146600;612;46010;-74
2022/01/08 13:05:42;;;;;;;;;13.75;13.25;;;;;20.31;53.03;100304.31;146604;660;46020;-73
2022/01/08 13:08:38;;;;;;;;;18.75;16.50;;;;;20.55;52.70;100290.41;146597;640;46016;-73
2022/01/08 13:11:34;;;;;;;;;10.00;7.50;;;;;20.71;52.00;100278.16;146600;636;46021;-72
2022/01/08 13:14:30;;;;;;;;;13.50;10.75;;;;;20.89;51.85;100279.97;146601;569;46016;-73
2022/01/08 13:17:26;;;;;;;;;14.25;11.75;;;;;21.13;51.43;100260.69;146603;630;46008;-73
2022/01/08 13:20:18;;;;;;;;;10.00;10.00;;;;;21.28;49.46;100265.06;146601;758;46016;-73
2022/01/08 13:23:13;;;;;;;;;10.67;9.67;;;;;21.42;50.87;100264.22;146604;609;46020;-73
2022/01/08 13:26:05;;;;;;;;;16.75;15.75;;;;;21.56;49.75;100261.59;146599;595;46016;-73
2022/01/08 13:28:58;;;;;;;;;22.75;22.75;;;;;21.49;49.80;100253.66;146602;572;46008;-73
2022/01/08 13:32:10;;;;;;;;;17.75;15.50;;;;;21.23;50.15;100260.66;146599;661;47010;-72
2022/01/08 13:35:04;;;;;;;;;12.00;11.33;;;;;20.83;50.16;100269.41;146600;618;46020;-73
2022/01/08 13:37:56;;;;;;;;;20.00;18.25;;;;;20.28;50.65;100281.50;146597;566;46033;-76